Time;durP1;ratioP1;P1;durP2;ratioP2;P2;SDS_P1;SDS_P2;PMS_P1;PMS_P2;Temp;Humidity;BMP_temperature;BMP_pressure;BME280_temperature;BME280_humidity;BME280_pressure;Samples;Min_cycle;Max_cycle;Signal;HPM_P1;HPM_P2
2023/03/05 00:01:57;;;;;;;18.23;13.23;;;;;;;3.33;49.22;99115.75;5108203;28;20046;-71
2023/03/05 00:04:25;;;;;;;18.55;13.73;;;;;;;3.34;49.17;99123.56;5107708;28;20111;-73
2023/03/05 00:06:52;;;;;;;16.80;12.95;;;;;;;3.11;49.09;99087.56;5107647;28;20247;-72
2023/03/05 00:09:19;;;;;;;18.35;12.02;;;;;;;3.30;49.66;99128.94;5107883;28;20316;-72
2023/03/05 00:11:47;;;;;;;19.52;13.10;;;;;;;3.30;49.39;99118.47;5107625;28;20044;-72
2023/03/05 00:14:14;;;;;;;16.05;12.23;;;;;;;3.30;49.34;99118.47;5106402;28;20067;-72
2023/03/05 00:16:41;;;;;;;18.83;13.48;;;;;;;3.31;49.68;99117.56;5107709;28;20055;-73
2023/03/05 00:19:07;;;;;;;18.98;11.55;;;;;;;3.31;49.37;99131.53;5106576;28;20046;-73
2023/03/05 00:21:37;;;;;;;16.98;13.27;;;;;;;3.35;49.14;99113.94;5107296;28;20115;-73
2023/03/05 00:24:07;;;;;;;19.83;13.25;;;;;;;3.34;49.50;99117.47;5107388;28;20036;-73
2023/03/05 00:26:37;;;;;;;17.80;12.60;;;;;;;3.33;49.70;99103.50;5107542;28;20106;-73
2023/03/05 00:29:06;;;;;;;16.80;12.13;;;;;;;3.14;49.99;99071.78;5107472;28;20040;-73
2023/03/05 00:31:35;;;;;;;23.95;13.85;;;;;;;3.30;49.35;99101.00;5107233;28;20040;-73
2023/03/05 00:34:04;;;;;;;17.75;13.43;;;;;;;2.72;49.83;99025.91;5107214;28;20355;-72
2023/03/05 00:36:31;;;;;;;17.90;12.55;;;;;;;3.31;50.00;99100.09;5107596;28;20040;-73
2023/03/05 00:38:58;;;;;;;16.90;13.02;;;;;;;3.24;49.90;99093.31;5106210;28;20047;-73
2023/03/05 00:41:25;;;;;;;20.10;14.45;;;;;;;2.22;49.91;98941.88;5106857;28;20050;-72
2023/03/05 00:43:52;;;;;;;17.40;13.80;;;;;;;3.22;50.33;99099.50;5107181;28;20031;-72
2023/03/05 00:46:20;;;;;;;16.52;12.43;;;;;;;3.23;49.96;99095.97;5106837;28;20040;-72
2023/03/05 00:48:47;;;;;;;19.30;13.13;;;;;;;2.45;50.14;98972.63;5107009;28;20052;-72
2023/03/05 00:51:14;;;;;;;18.08;12.00;;;;;;;3.21;50.24;99088.16;5107355;28;20347;-72
2023/03/05 00:53:41;;;;;;;17.23;13.10;;;;;;;3.20;50.36;99081.22;5106520;28;20040;-72
2023/03/05 00:56:07;;;;;;;15.60;11.70;;;;;;;3.20;50.49;99082.06;5106701;28;20153;-72
2023/03/05 00:58:34;;;;;;;20.80;14.02;;;;;;;3.19;50.49;99089.97;5106723;28;20043;-72
2023/03/05 01:01:02;;;;;;;17.90;12.95;;;;;;;3.03;50.25;99046.81;5106874;28;20055;-71
2023/03/05 01:03:31;;;;;;;17.25;13.57;;;;;;;3.23;50.93;99069.78;5105735;28;20304;-72
2023/03/05 01:05:58;;;;;;;16.45;13.32;;;;;;;3.21;50.35;99072.44;5107111;28;20050;-71
2023/03/05 01:08:25;;;;;;;16.40;11.57;;;;;;;3.21;50.29;99080.31;5105663;28;20036;-72
2023/03/05 01:10:52;;;;;;;15.23;11.68;;;;;;;3.19;50.71;99079.50;5106747;28;20259;-72
2023/03/05 01:13:19;;;;;;;16.73;12.15;;;;;;;3.20;50.08;99060.25;5107022;28;20032;-72
2023/03/05 01:15:47;;;;;;;17.70;12.32;;;;;;;3.19;50.83;99064.66;5106447;28;20111;-72
2023/03/05 01:18:14;;;;;;;15.02;11.68;;;;;;;3.12;51.00;99070.09;5105467;28;20051;-73
2023/03/05 01:20:42;;;;;;;15.35;11.88;;;;;;;3.11;50.96;99065.78;5106541;28;20044;-72
2023/03/05 01:23:10;;;;;;;15.43;12.68;;;;;;;3.12;50.68;99060.50;5106620;28;20042;-72
2023/03/05 01:25:37;;;;;;;15.20;12.45;;;;;;;3.13;50.88;99058.72;5106753;28;20203;-72
2023/03/05 01:28:04;;;;;;;18.67;12.07;;;;;;;3.16;50.41;99066.50;5106114;28;20044;-72
2023/03/05 01:30:31;;;;;;;16.33;11.52;;;;;;;3.16;50.61;99054.25;5106619;28;20044;-72
2023/03/05 01:32:57;;;;;;;17.40;11.75;;;;;;;3.16;50.70;99054.25;5106371;28;20056;-72
2023/03/05 01:35:25;;;;;;;17.13;12.18;;;;;;;-0.59;50.60;98407.69;5106345;28;20044;-72
2023/03/05 01:37:54;;;;;;;17.25;11.98;;;;;;;3.16;51.25;99050.78;5106251;28;20036;-72
2023/03/05 01:40:25;;;;;;;16.77;13.05;;;;;;;3.12;51.26;99050.00;5105707;28;20040;-72
2023/03/05 01:42:57;;;;;;;17.00;11.52;;;;;;;3.13;51.38;99045.63;5105624;28;20250;-72
2023/03/05 01:45:24;;;;;;;16.92;11.40;;;;;;;3.13;50.67;99051.72;5106080;28;20048;-73
2023/03/05 01:47:51;;;;;;;16.38;11.45;;;;;;;2.95;50.99;99009.53;5105890;28;20050;-72
2023/03/05 01:50:22;;;;;;;15.88;12.07;;;;;;;3.16;51.40;99037.69;5105758;28;20039;-72
2023/03/05 01:52:54;;;;;;;19.00;12.80;;;;;;;3.16;51.19;99038.53;5104972;28;20036;-73
2023/03/05 01:55:24;;;;;;;16.63;11.88;;;;;;;3.14;51.59;99045.59;5105726;28;20072;-72
2023/03/05 01:57:55;;;;;;;16.45;11.82;;;;;;;3.14;51.22;99036.88;5105755;28;20062;-72
2023/03/05 02:00:26;;;;;;;16.95;11.95;;;;;;;3.17;51.10;99042.88;5105923;28;20231;-72
2023/03/05 02:02:53;;;;;;;16.67;12.55;;;;;;;3.17;50.95;99029.78;5105604;28;20066;-72
2023/03/05 02:05:25;;;;;;;17.25;12.88;;;;;;;3.15;51.73;99025.50;5105709;28;20044;-71
2023/03/05 02:07:54;;;;;;;16.55;12.43;;;;;;;3.16;51.27;99035.94;5105991;28;20372;-72
2023/03/05 02:10:25;;;;;;;16.52;12.10;;;;;;;3.12;51.90;99036.94;5105551;28;20056;-72
2023/03/05 02:12:54;;;;;;;16.38;11.15;;;;;;;3.12;51.58;99036.06;5104471;28;20259;-72
2023/03/05 02:15:22;;;;;;;16.58;11.95;;;;;;;3.13;51.15;99037.78;5104499;28;20043;-72
2023/03/05 02:17:48;;;;;;;16.95;11.52;;;;;;;3.10;52.13;99041.34;5105431;28;20032;-72
2023/03/05 02:20:19;;;;;;;15.02;11.68;;;;;;;3.11;51.48;99037.81;5105537;28;20040;-72
2023/03/05 02:22:48;;;;;;;17.05;11.90;;;;;;;3.14;51.86;99026.41;5104631;28;20050;-73
2023/03/05 02:25:17;;;;;;;17.00;11.45;;;;;;;2.91;51.76;98994.81;5105992;28;20040;-73
2023/03/05 02:27:51;;;;;;;16.02;12.23;;;;;;;3.14;51.67;99032.50;5105458;28;20099;-73
2023/03/05 02:30:18;;;;;;;17.33;11.52;;;;;;;3.13;51.85;99028.16;5105221;28;20063;-72
2023/03/05 02:32:45;;;;;;;14.32;11.27;;;;;;;3.14;51.99;99029.88;5105853;28;20032;-72
2023/03/05 02:35:12;;;;;;;14.27;11.02;;;;;;;3.14;52.11;99026.41;5105343;28;20051;-73
2023/03/05 02:37:39;;;;;;;17.40;13.52;;;;;;;0.78;51.95;98626.38;5104501;28;20044;-73
2023/03/05 02:40:13;;;;;;;17.05;11.85;;;;;;;3.12;53.44;99025.59;5104815;28;20066;-72
2023/03/05 02:42:40;;;;;;;15.65;13.18;;;;;;;2.73;51.93;98947.34;5105846;28;20058;-71
2023/03/05 02:45:08;;;;;;;16.33;11.00;;;;;;;3.15;52.07;99012.41;5105807;28;20032;-71
2023/03/05 02:47:35;;;;;;;17.80;14.13;;;;;;;3.11;52.09;99009.03;5104462;28;20036;-72
2023/03/05 02:50:02;;;;;;;17.05;12.25;;;;;;;3.10;52.84;99009.94;5105876;28;20051;-71
2023/03/05 02:52:29;;;;;;;14.95;11.23;;;;;;;2.54;52.32;98930.50;5105851;28;20051;-72
2023/03/05 02:54:56;;;;;;;16.48;11.98;;;;;;;2.90;51.90;98967.78;5108073;28;20311;-72
2023/03/05 02:57:24;;;;;;;15.75;12.10;;;;;;;3.14;52.50;99013.31;5109521;28;20052;-72
2023/03/05 02:59:51;;;;;;;16.98;12.10;;;;;;;2.51;52.05;98931.44;5109113;28;20048;-72
2023/03/05 03:02:18;;;;;;;15.25;11.80;;;;;;;3.12;52.23;99012.50;5109218;28;20292;-72
2023/03/05 03:04:45;;;;;;;17.60;12.52;;;;;;;3.10;52.12;99003.84;5109468;28;20054;-72
2023/03/05 03:07:13;;;;;;;15.60;12.32;;;;;;;3.10;52.42;99009.94;5109312;28;20366;-72
2023/03/05 03:09:41;;;;;;;18.23;12.05;;;;;;;2.69;52.47;98927.41;5109202;28;20206;-72
2023/03/05 03:12:08;;;;;;;16.27;11.80;;;;;;;3.09;52.56;98999.50;5107942;28;20312;-72
2023/03/05 03:14:40;;;;;;;17.60;12.88;;;;;;;3.09;52.28;98999.50;5108578;28;20056;-72
2023/03/05 03:17:06;;;;;;;15.80;11.75;;;;;;;3.10;52.29;98993.34;5109171;28;20043;-72
2023/03/05 03:19:33;;;;;;;16.50;12.35;;;;;;;3.10;52.33;99003.84;5108626;28;20048;-72
2023/03/05 03:22:00;;;;;;;17.27;12.60;;;;;;;3.11;52.18;98982.84;5108573;28;20051;-72
2023/03/05 03:24:27;;;;;;;15.88;12.05;;;;;;;3.14;51.82;98992.38;5108358;28;20040;-73
2023/03/05 03:26:54;;;;;;;15.52;12.95;;;;;;;3.17;51.99;98989.66;5108788;28;20036;-73
2023/03/05 03:29:20;;;;;;;15.43;12.75;;;;;;;2.23;51.72;98807.63;5108944;28;20039;-73
2023/03/05 03:31:48;;;;;;;15.10;11.88;;;;;;;3.19;52.22;98980.84;5108966;28;20100;-73
2023/03/05 03:34:16;;;;;;;15.77;13.02;;;;;;;3.15;52.04;98976.59;5108046;28;20292;-73
2023/03/05 03:36:44;;;;;;;17.02;12.93;;;;;;;3.16;52.40;98982.69;5108638;28;20054;-74
2023/03/05 03:39:12;;;;;;;14.32;11.52;;;;;;;3.16;52.37;98967.00;5108365;28;20107;-73
2023/03/05 03:41:42;;;;;;;16.52;12.88;;;;;;;3.12;52.81;98978.47;5108041;28;20048;-73
2023/03/05 03:44:09;;;;;;;14.60;11.60;;;;;;;2.77;52.22;98921.97;5108123;28;20243;-73
2023/03/05 03:46:36;;;;;;;15.52;11.90;;;;;;;1.44;52.17;98716.72;5108178;28;20052;-72
2023/03/05 03:49:05;;;;;;;15.07;11.32;;;;;;;3.14;52.55;98974.03;5107272;28;20032;-72
2023/03/05 03:51:32;;;;;;;18.50;11.82;;;;;;;3.16;52.32;98974.84;5108352;28;20046;-71
2023/03/05 03:53:59;;;;;;;15.75;11.60;;;;;;;3.20;52.68;98977.31;5107789;28;20062;-73
2023/03/05 03:56:26;;;;;;;13.90;11.98;;;;;;;2.64;52.41;98889.22;5108479;28;20056;-72
2023/03/05 03:58:54;;;;;;;15.32;11.30;;;;;;;3.23;52.36;98975.50;5108119;28;20055;-72
2023/03/05 04:01:21;;;;;;;14.75;10.70;;;;;;;3.22;52.93;98973.78;5107802;28;20051;-72
2023/03/05 04:03:48;;;;;;;16.15;12.02;;;;;;;3.04;52.49;98938.56;5108743;28;20040;-72
2023/03/05 04:06:16;;;;;;;15.50;12.00;;;;;;;3.23;52.61;98978.97;5107864;28;20040;-72
2023/03/05 04:08:43;;;;;;;16.10;11.80;;;;;;;3.06;52.53;98931.53;5108467;28;20051;-73
2023/03/05 04:11:10;;;;;;;15.15;11.52;;;;;;;3.24;52.51;98964.97;5108336;28;20044;-73
2023/03/05 04:13:36;;;;;;;14.65;10.68;;;;;;;3.27;52.63;98972.75;5107614;28;20044;-72
2023/03/05 04:16:03;;;;;;;16.42;12.38;;;;;;;3.29;52.51;98960.47;5107816;28;20043;-73
2023/03/05 04:18:30;;;;;;;14.32;11.88;;;;;;;3.28;52.83;98965.75;5107699;28;20036;-72
2023/03/05 04:20:57;;;;;;;13.13;10.90;;;;;;;2.72;52.81;98867.16;5107192;28;20111;-73
2023/03/05 04:23:25;;;;;;;15.05;11.75;;;;;;;3.10;52.67;98939.22;5106804;28;20215;-72
2023/03/05 04:25:52;;;;;;;12.93;10.38;;;;;;;3.30;52.72;98956.94;5106493;28;20043;-72
2023/03/05 04:28:18;;;;;;;16.55;12.18;;;;;;;3.28;52.93;98963.97;5106373;28;20043;-72
2023/03/05 04:30:45;;;;;;;16.77;12.88;;;;;;;2.84;52.91;98879.84;5106590;28;20062;-72
2023/03/05 04:33:12;;;;;;;15.77;12.32;;;;;;;3.24;53.08;98954.50;5107482;28;20040;-72
2023/03/05 04:35:39;;;;;;;17.83;12.27;;;;;;;3.23;53.37;98951.94;5107188;28;20039;-72
2023/03/05 04:38:05;;;;;;;15.82;11.27;;;;;;;3.22;53.29;98955.47;5106345;28;20040;-73
2023/03/05 04:40:34;;;;;;;17.35;12.73;;;;;;;2.19;54.23;98793.78;5107838;28;20051;-73
2023/03/05 04:43:01;;;;;;;17.38;12.73;;;;;;;3.10;54.25;98954.94;5107545;28;20044;-73
2023/03/05 04:45:28;;;;;;;16.92;12.80;;;;;;;3.06;53.92;98950.72;5106119;28;20044;-73
2023/03/05 04:47:54;;;;;;;16.80;12.23;;;;;;;3.11;53.57;98953.19;5106195;28;20208;-73
2023/03/05 04:50:21;;;;;;;17.33;12.07;;;;;;;1.84;53.35;98731.28;5106812;28;20040;-72
2023/03/05 04:52:49;;;;;;;16.60;12.15;;;;;;;3.07;53.72;98955.03;5105847;28;20097;-72
2023/03/05 04:55:16;;;;;;;16.75;13.02;;;;;;;2.76;53.55;98866.16;5105881;28;20044;-73
2023/03/05 04:57:45;;;;;;;16.00;11.80;;;;;;;2.20;53.46;98777.22;5107071;28;20203;-72
2023/03/05 05:00:14;;;;;;;15.90;12.57;;;;;;;3.16;53.93;98944.28;5106750;28;20099;-72
2023/03/05 05:02:42;;;;;;;16.75;12.05;;;;;;;3.16;53.61;98936.41;5106012;28;20300;-72
2023/03/05 05:05:10;;;;;;;17.33;12.73;;;;;;;2.77;53.67;98867.84;5106689;28;20046;-72
2023/03/05 05:07:36;;;;;;;15.13;12.13;;;;;;;3.15;53.63;98941.72;5107211;28;20089;-73
2023/03/05 05:10:04;;;;;;;17.63;12.88;;;;;;;1.37;53.68;98625.56;5106929;28;20058;-73
2023/03/05 05:12:31;;;;;;;16.27;12.02;;;;;;;3.16;53.57;98930.31;5105779;28;20118;-73
2023/03/05 05:14:59;;;;;;;18.42;13.10;;;;;;;3.16;53.91;98939.03;5105687;28;20040;-73
2023/03/05 05:17:29;;;;;;;15.30;11.85;;;;;;;2.12;53.53;98760.03;5105896;28;20044;-73
2023/03/05 05:19:56;;;;;;;15.48;12.40;;;;;;;3.18;53.65;98929.38;5105685;28;20304;-73
2023/03/05 05:22:23;;;;;;;17.33;12.20;;;;;;;3.01;54.20;98915.97;5105554;28;20036;-73
2023/03/05 05:24:50;;;;;;;15.15;11.77;;;;;;;3.19;54.22;98927.59;5105411;28;20291;-73
2023/03/05 05:27:17;;;;;;;16.17;13.23;;;;;;;3.23;53.65;98917.91;5106779;28;20052;-73
2023/03/05 05:29:45;;;;;;;16.00;13.15;;;;;;;3.24;53.57;98925.69;5105967;28;20250;-73
2023/03/05 05:32:13;;;;;;;16.27;11.73;;;;;;;3.00;53.72;98889.81;5106761;28;20085;-73
2023/03/05 05:34:39;;;;;;;15.40;11.75;;;;;;;3.26;53.63;98923.88;5106181;28;20047;-73
2023/03/05 05:37:06;;;;;;;16.77;12.65;;;;;;;2.87;53.63;98864.03;5106597;28;20051;-73
2023/03/05 05:39:33;;;;;;;14.98;12.13;;;;;;;2.86;53.60;98859.72;5106629;28;20044;-73
2023/03/05 05:42:00;;;;;;;20.05;12.52;;;;;;;3.31;53.60;98937.69;5105172;28;20040;-73
2023/03/05 05:44:27;;;;;;;15.43;12.57;;;;;;;1.82;53.89;98675.59;5106457;28;20199;-73
2023/03/05 05:46:54;;;;;;;15.38;11.80;;;;;;;3.30;53.79;98929.88;5106210;28;20085;-73
2023/03/05 05:49:22;;;;;;;15.35;12.10;;;;;;;3.30;53.88;98935.13;5105016;28;20056;-74
2023/03/05 05:51:49;;;;;;;15.95;12.07;;;;;;;3.26;55.15;98934.38;5105023;28;20299;-73
2023/03/05 05:54:16;;;;;;;15.05;11.57;;;;;;;3.26;54.35;98923.88;5105558;28;20105;-74
2023/03/05 05:56:43;;;;;;;15.55;11.13;;;;;;;3.06;54.52;98892.25;5105968;28;20213;-73
2023/03/05 05:59:10;;;;;;;14.88;11.82;;;;;;;3.22;54.41;98927.50;5106396;28;20040;-73
2023/03/05 06:01:38;;;;;;;16.55;12.63;;;;;;;3.21;54.44;98938.88;5106069;28;20063;-73
2023/03/05 06:04:05;;;;;;;18.55;13.15;;;;;;;3.22;54.16;98929.28;5105360;28;20122;-73
2023/03/05 06:06:33;;;;;;;16.13;12.60;;;;;;;3.23;54.76;98949.31;5106612;28;20284;-73
2023/03/05 06:09:00;;;;;;;15.45;12.40;;;;;;;3.22;54.64;98943.22;5105946;28;20063;-74
2023/03/05 06:11:27;;;;;;;16.60;12.18;;;;;;;2.60;54.26;98864.06;5104871;28;20127;-73
2023/03/05 06:13:54;;;;;;;17.95;11.93;;;;;;;3.24;53.87;98928.31;5104740;28;20047;-74
2023/03/05 06:16:23;;;;;;;14.45;10.93;;;;;;;3.30;54.23;98933.34;5104809;28;20036;-73
2023/03/05 06:18:50;;;;;;;14.77;10.68;;;;;;;3.31;54.11;98940.31;5105847;28;20111;-74
2023/03/05 06:21:19;;;;;;;15.88;11.50;;;;;;;3.32;54.02;98936.78;5104680;28;20086;-73
2023/03/05 06:23:48;;;;;;;18.27;12.23;;;;;;;3.35;54.14;98938.44;5106257;28;20071;-73
2023/03/05 06:26:17;;;;;;;17.10;12.23;;;;;;;3.38;54.14;98928.72;5105950;28;20052;-74
2023/03/05 06:28:44;;;;;;;18.02;12.63;;;;;;;3.33;54.05;98917.53;5108426;28;20044;-74
2023/03/05 06:31:12;;;;;;;17.08;11.85;;;;;;;3.43;54.03;98929.44;5110041;28;20039;-73
2023/03/05 06:33:41;;;;;;;16.13;11.23;;;;;;;2.54;54.08;98784.84;5109814;28;20080;-73
2023/03/05 06:36:10;;;;;;;17.13;12.75;;;;;;;2.91;54.11;98901.44;5108657;28;20044;-73
2023/03/05 06:38:38;;;;;;;15.45;12.13;;;;;;;2.98;54.45;98873.31;5109526;28;20039;-74
2023/03/05 06:41:10;;;;;;;15.90;11.07;;;;;;;3.42;54.73;98932.97;5091829;28;20326;-74
2023/03/05 06:43:38;;;;;;;16.45;12.20;;;;;;;3.44;54.14;98928.53;5109864;28;20051;-71
2023/03/05 06:46:05;;;;;;;15.88;11.73;;;;;;;3.45;53.94;98925.00;5109271;28;20105;-72
2023/03/05 06:48:33;;;;;;;17.88;13.23;;;;;;;3.47;54.37;98925.81;5108426;28;20049;-72
2023/03/05 06:51:00;;;;;;;16.52;12.40;;;;;;;2.87;54.00;98819.56;5108356;28;20093;-72
2023/03/05 06:53:27;;;;;;;17.45;12.73;;;;;;;3.52;54.04;98930.88;5109747;28;20062;-72
2023/03/05 06:55:54;;;;;;;14.73;11.80;;;;;;;2.95;54.45;98842.84;5108963;28;20062;-72
2023/03/05 06:58:23;;;;;;;15.13;11.82;;;;;;;3.04;54.99;98857.41;5109534;28;20085;-72
2023/03/05 07:00:49;;;;;;;17.45;14.23;;;;;;;3.50;54.27;98930.94;5108209;28;20036;-72
2023/03/05 07:03:16;;;;;;;18.77;13.57;;;;;;;3.49;54.48;98931.00;5109520;28;20036;-73
2023/03/05 07:05:43;;;;;;;19.83;13.35;;;;;;;3.53;54.29;98936.06;5108253;28;20052;-72
2023/03/05 07:08:10;;;;;;;20.75;14.63;;;;;;;3.51;54.72;98934.41;5109411;28;20062;-73
2023/03/05 07:10:39;;;;;;;18.58;13.95;;;;;;;3.31;54.52;98900.16;5109302;28;20043;-73
2023/03/05 07:13:06;;;;;;;17.48;14.00;;;;;;;2.10;54.78;98726.09;5091207;28;20051;-73
2023/03/05 07:15:37;;;;;;;20.13;14.40;;;;;;;3.12;54.61;98874.59;5108725;28;20188;-73
2023/03/05 07:18:04;;;;;;;21.58;15.23;;;;;;;3.08;54.84;98872.97;5107847;28;20036;-72
2023/03/05 07:20:31;;;;;;;23.90;14.73;;;;;;;3.49;54.62;98937.09;5109025;28;20044;-73
2023/03/05 07:22:58;;;;;;;18.60;14.77;;;;;;;3.49;54.35;98942.31;5108520;28;20090;-72
2023/03/05 07:25:25;;;;;;;20.42;15.40;;;;;;;3.47;54.76;98941.53;5107557;28;20082;-72
2023/03/05 07:27:52;;;;;;;22.70;15.60;;;;;;;3.46;54.69;98938.94;5108861;28;20050;-72
2023/03/05 07:30:19;;;;;;;18.60;14.40;;;;;;;3.43;54.84;98929.44;5108147;28;20036;-73
2023/03/05 07:32:47;;;;;;;19.85;14.70;;;;;;;3.45;54.68;98930.22;5107837;28;20031;-73
2023/03/05 07:35:14;;;;;;;18.27;13.55;;;;;;;3.48;54.71;98935.38;5107732;28;20050;-73
2023/03/05 07:37:41;;;;;;;20.02;13.68;;;;;;;3.06;54.58;98855.59;5108195;28;20050;-72
2023/03/05 07:40:09;;;;;;;20.60;14.27;;;;;;;3.27;54.83;98888.94;5106909;28;20032;-72
2023/03/05 07:42:35;;;;;;;17.20;12.38;;;;;;;3.42;54.64;98914.63;5108329;28;20043;-73
2023/03/05 07:45:02;;;;;;;19.73;13.65;;;;;;;3.53;54.52;98920.34;5108341;28;20050;-72
2023/03/05 07:47:30;;;;;;;21.48;13.90;;;;;;;3.52;54.67;98921.25;5107063;28;20111;-73
2023/03/05 07:49:58;;;;;;;20.52;12.63;;;;;;;2.76;55.01;98803.34;5108508;28;20055;-73
2023/03/05 07:52:25;;;;;;;18.52;12.95;;;;;;;2.22;54.82;98757.09;5107147;28;20070;-74
2023/03/05 07:54:52;;;;;;;18.02;13.95;;;;;;;2.35;54.54;98731.44;5107622;28;20052;-74
2023/03/05 07:57:19;;;;;;;17.65;14.55;;;;;;;3.59;54.66;98916.66;5107575;28;20047;-74
2023/03/05 07:59:45;;;;;;;16.85;13.00;;;;;;;3.62;54.59;98920.94;5108055;28;20284;-74
2023/03/05 08:02:13;;;;;;;17.60;14.15;;;;;;;3.62;54.43;98915.72;5107450;28;20252;-73
2023/03/05 08:04:41;;;;;;;16.17;12.85;;;;;;;3.60;54.63;98923.63;5107973;28;20157;-74
2023/03/05 08:07:10;;;;;;;17.45;13.27;;;;;;;2.85;54.49;98789.09;5106818;28;20082;-74
2023/03/05 08:09:36;;;;;;;17.42;12.93;;;;;;;3.44;54.36;98875.28;5107647;28;20107;-74
2023/03/05 08:12:03;;;;;;;16.30;12.68;;;;;;;3.71;54.38;98923.25;5106939;28;20040;-72
2023/03/05 08:14:30;;;;;;;17.75;14.07;;;;;;;3.71;54.41;98913.63;5107813;28;20054;-72
2023/03/05 08:16:57;;;;;;;16.73;13.15;;;;;;;3.76;54.34;98908.22;5106306;28;20044;-72
2023/03/05 08:19:23;;;;;;;17.60;14.52;;;;;;;3.79;54.26;98908.13;5106882;28;20043;-73
2023/03/05 08:21:50;;;;;;;18.00;15.70;;;;;;;3.80;54.14;98899.34;5107712;28;20050;-73
2023/03/05 08:24:18;;;;;;;15.05;11.93;;;;;;;3.82;54.36;98914.13;5107068;28;20262;-73
2023/03/05 08:26:45;;;;;;;20.73;14.05;;;;;;;3.84;54.25;98911.44;5107569;28;20062;-72
2023/03/05 08:29:12;;;;;;;18.48;14.35;;;;;;;3.81;54.26;98908.94;5107095;28;20044;-73
2023/03/05 08:31:39;;;;;;;19.15;14.40;;;;;;;3.31;54.29;98808.50;5106990;28;20323;-73
2023/03/05 08:34:07;;;;;;;18.85;14.20;;;;;;;3.92;54.40;98911.16;5106075;28;20028;-73
2023/03/05 08:36:34;;;;;;;19.73;15.13;;;;;;;3.91;54.21;98915.56;5106063;28;20046;-72
2023/03/05 08:39:01;;;;;;;18.60;14.15;;;;;;;3.86;54.34;98909.63;5106749;28;20036;-73
2023/03/05 08:41:29;;;;;;;20.17;15.07;;;;;;;3.86;54.26;98914.88;5106982;28;20103;-74
2023/03/05 08:43:56;;;;;;;18.08;13.57;;;;;;;3.89;54.58;98908.66;5105714;28;20127;-73
2023/03/05 08:46:23;;;;;;;17.05;12.88;;;;;;;3.52;54.17;98850.53;5106220;28;20051;-73
2023/03/05 08:48:50;;;;;;;17.63;13.55;;;;;;;3.91;54.36;98915.56;5107095;28;20308;-73
2023/03/05 08:51:20;;;;;;;17.55;14.13;;;;;;;3.93;54.36;98921.59;5107589;28;20059;-73
2023/03/05 08:53:47;;;;;;;19.77;15.00;;;;;;;3.76;54.35;98871.53;5107070;28;20050;-73
2023/03/05 08:56:15;;;;;;;18.15;14.63;;;;;;;3.99;54.23;98925.78;5106825;28;20068;-73
2023/03/05 08:58:44;;;;;;;21.70;15.15;;;;;;;4.01;54.31;98909.09;5105791;28;20032;-73
2023/03/05 09:01:11;;;;;;;21.75;14.50;;;;;;;4.02;54.07;98902.94;5107164;28;20294;-73
2023/03/05 09:03:38;;;;;;;18.23;13.93;;;;;;;3.95;53.98;98890.09;5106875;28;20097;-73
2023/03/05 09:06:08;;;;;;;18.33;14.60;;;;;;;4.07;54.16;98901.00;5106354;28;20032;-73
2023/03/05 09:08:36;;;;;;;19.63;15.43;;;;;;;4.13;54.21;98913.88;5106896;28;20052;-73
2023/03/05 09:11:04;;;;;;;19.60;14.88;;;;;;;4.18;53.89;98911.09;5106811;28;20066;-73
2023/03/05 09:13:32;;;;;;;17.75;14.40;;;;;;;4.26;53.72;98892.50;5106450;28;20099;-73
2023/03/05 09:16:02;;;;;;;20.15;16.00;;;;;;;4.34;54.12;98895.69;5106346;28;20173;-74
2023/03/05 09:18:30;;;;;;;20.25;14.80;;;;;;;3.92;53.37;98803.69;5088388;28;20070;-73
2023/03/05 09:20:57;;;;;;;20.30;15.00;;;;;;;4.09;53.36;98823.13;5105995;28;20291;-73
2023/03/05 09:23:24;;;;;;;19.13;14.95;;;;;;;4.42;53.20;98857.75;5105892;28;20042;-73
2023/03/05 09:25:51;;;;;;;18.92;14.45;;;;;;;4.74;53.10;98881.91;5105870;28;20055;-73
2023/03/05 09:28:18;;;;;;;18.67;14.35;;;;;;;4.76;52.75;98885.31;5105854;28;20303;-73
2023/03/05 09:30:44;;;;;;;17.58;13.82;;;;;;;4.76;52.92;98886.16;5106412;28;20050;-73
2023/03/05 09:33:13;;;;;;;20.83;15.05;;;;;;;4.78;52.75;98878.25;5105962;28;20208;-73
2023/03/05 09:35:39;;;;;;;18.65;13.82;;;;;;;4.79;52.80;98872.06;5106325;28;20142;-72
2023/03/05 09:38:07;;;;;;;19.10;15.93;;;;;;;4.86;52.78;98884.03;5105743;28;20036;-73
2023/03/05 09:40:43;;;;;;;18.23;13.43;;;;;;;4.89;52.64;98904.97;5105620;28;20115;-73
2023/03/05 09:43:24;;;;;;;17.52;13.85;;;;;;;4.89;53.01;98876.06;5105739;28;20042;-73
2023/03/05 09:46:05;;;;;;;19.60;14.60;;;;;;;3.81;52.84;98718.44;5104403;28;20039;-72
2023/03/05 09:48:49;;;;;;;17.33;13.30;;;;;;;3.01;53.14;98544.22;5105488;28;20040;-73
2023/03/05 09:51:22;;;;;;;18.58;13.88;;;;;;;3.66;52.26;98616.81;5105905;28;20048;-73
2023/03/05 09:53:57;;;;;;;18.67;13.10;;;;;;;5.07;52.14;98835.09;5105734;28;20036;-73
2023/03/05 09:56:28;;;;;;;19.67;13.32;;;;;;;4.12;51.79;98714.63;5105719;28;20040;-73
2023/03/05 09:59:00;;;;;;;19.75;13.98;;;;;;;5.39;51.74;98868.75;5106072;28;20036;-73
2023/03/05 10:01:32;;;;;;;16.42;12.02;;;;;;;5.43;51.87;98885.25;5105912;28;20061;-73
2023/03/05 10:04:07;;;;;;;17.67;14.43;;;;;;;5.50;51.72;98868.31;5105104;28;20051;-73
2023/03/05 10:06:36;;;;;;;18.02;14.57;;;;;;;5.63;51.41;98866.00;5105679;28;20040;-73
2023/03/05 10:09:13;;;;;;;18.85;15.30;;;;;;;5.19;51.10;98770.69;5105366;28;20100;-73
2023/03/05 10:11:45;;;;;;;18.58;13.98;;;;;;;5.60;51.19;98832.81;5105738;28;20111;-73
2023/03/05 10:14:15;;;;;;;19.52;14.75;;;;;;;5.87;51.00;98864.94;5105451;28;20111;-73
2023/03/05 10:17:18;;;;;;;19.05;14.30;;;;;;;5.91;50.88;98849.88;5104743;28;20036;-73
2023/03/05 10:20:03;;;;;;;19.67;14.18;;;;;;;5.57;50.77;98805.81;5102321;28;20059;-73
2023/03/05 10:22:33;;;;;;;19.90;14.45;;;;;;;5.90;50.97;98856.06;5104249;28;20044;-73
2023/03/05 10:25:16;;;;;;;17.27;13.73;;;;;;;5.92;50.88;98844.56;5104443;28;20028;-73
2023/03/05 10:27:48;;;;;;;18.10;13.57;;;;;;;5.91;50.83;98845.47;5105701;28;20047;-73
2023/03/05 10:30:39;;;;;;;19.23;13.82;;;;;;;5.38;50.64;98742.69;5105171;28;20086;-73
2023/03/05 10:33:20;;;;;;;19.83;15.65;;;;;;;6.00;50.57;98834.56;5105733;28;20321;-73
2023/03/05 10:36:17;;;;;;;19.55;14.10;;;;;;;6.07;50.62;98833.34;5105475;28;20090;-73
2023/03/05 10:39:27;;;;;;;17.15;14.00;;;;;;;6.15;50.65;98827.75;5104032;28;20056;-73
2023/03/05 10:42:04;;;;;;;17.83;13.35;;;;;;;5.03;50.14;98696.94;5105270;28;20046;-73
2023/03/05 10:44:38;;;;;;;19.10;13.73;;;;;;;6.40;50.31;98817.78;5105130;28;20051;-73
2023/03/05 10:47:14;;;;;;;20.00;15.05;;;;;;;5.29;49.52;98598.59;5105114;28;20036;-73
2023/03/05 10:49:50;;;;;;;18.98;13.35;;;;;;;6.51;49.43;98812.03;5105234;28;20108;-73
2023/03/05 10:52:21;;;;;;;20.60;14.50;;;;;;;4.77;49.54;98512.47;5104545;28;20039;-74
2023/03/05 10:54:50;;;;;;;18.65;14.70;;;;;;;5.85;49.56;98682.72;5104782;28;20196;-73
2023/03/05 10:57:20;;;;;;;17.50;13.55;;;;;;;6.62;49.52;98795.72;5104092;28;20300;-74
2023/03/05 10:59:52;;;;;;;17.77;14.75;;;;;;;6.66;49.24;98803.41;5105395;28;20046;-73
2023/03/05 11:02:20;;;;;;;20.23;14.23;;;;;;;6.48;49.27;98798.16;5103711;28;20292;-74
2023/03/05 11:04:48;;;;;;;16.05;13.18;;;;;;;6.70;49.06;98802.31;5103905;28;20107;-73
2023/03/05 11:07:38;;;;;;;20.30;15.32;;;;;;;6.53;48.22;98773.31;5087463;28;20134;-73
2023/03/05 11:10:16;;;;;;;16.88;12.60;;;;;;;6.36;48.48;98747.78;5104133;28;20199;-74
2023/03/05 11:12:43;;;;;;;19.25;14.32;;;;;;;6.57;48.88;98752.97;5103930;28;20304;-74
2023/03/05 11:15:30;;;;;;;17.63;14.45;;;;;;;6.51;48.17;98724.28;5106584;28;20043;-74
2023/03/05 11:18:23;;;;;;;17.83;13.77;;;;;;;6.94;47.95;98781.88;5107471;28;20081;-73
2023/03/05 11:20:51;;;;;;;19.15;15.05;;;;;;;6.85;48.56;98755.13;5094231;28;20075;-74
2023/03/05 11:23:22;;;;;;;18.05;14.13;;;;;;;7.04;48.12;98771.72;5108278;28;20200;-73
2023/03/05 11:26:01;;;;;;;19.63;15.07;;;;;;;7.08;48.05;98768.00;5108144;28;20040;-73
2023/03/05 11:28:33;;;;;;;19.52;15.10;;;;;;;7.10;48.04;98765.28;5107132;28;20047;-73
2023/03/05 11:31:06;;;;;;;19.52;14.88;;;;;;;7.05;48.18;98776.91;5107637;28;20063;-74
2023/03/05 11:33:34;;;;;;;19.90;14.18;;;;;;;7.03;48.13;98765.59;5107800;28;20052;-74